Time;durP1;ratioP1;P1;durP2;ratioP2;P2;SDS_P1;SDS_P2;PMS_P1;PMS_P2;Temp;Humidity;BMP_temperature;BMP_pressure;BME280_temperature;BME280_humidity;BME280_pressure;Samples;Min_cycle;Max_cycle;Signal;HPM_P1;HPM_P2
2021/07/18 00:00:55;;;;;;;6.90;4.28;;;18.70;50.40;;;;;;5010707;28;20428;-73
2021/07/18 00:03:21;;;;;;;6.78;4.40;;;18.70;50.80;;;;;;5024221;28;20393;-73
2021/07/18 00:05:46;;;;;;;7.97;4.53;;;18.60;51.60;;;;;;5011248;28;20396;-75
2021/07/18 00:08:12;;;;;;;5.20;4.70;;;18.60;51.80;;;;;;5010718;28;20413;-75
2021/07/18 00:10:37;;;;;;;8.93;4.60;;;18.60;51.80;;;;;;5010616;28;20408;-75
2021/07/18 00:13:03;;;;;;;6.60;4.23;;;18.50;52.30;;;;;;4993387;28;20766;-74
2021/07/18 00:15:29;;;;;;;7.40;4.20;;;18.50;52.70;;;;;;5010715;28;20881;-74
2021/07/18 00:17:56;;;;;;;9.00;4.60;;;18.50;53.10;;;;;;5010872;28;20384;-75
2021/07/18 00:20:22;;;;;;;6.63;4.63;;;18.40;53.10;;;;;;5029773;28;20509;-74
2021/07/18 00:22:48;;;;;;;10.20;4.60;;;18.40;53.70;;;;;;5030855;28;20395;-76
2021/07/18 00:25:14;;;;;;;7.55;4.38;;;18.40;54.00;;;;;;5029799;28;20465;-74
2021/07/18 00:27:40;;;;;;;9.70;5.00;;;18.30;54.50;;;;;;5034766;28;20418;-73
2021/07/18 00:30:07;;;;;;;9.02;5.32;;;18.30;54.90;;;;;;5020237;28;20996;-73
2021/07/18 00:32:33;;;;;;;8.30;5.07;;;18.30;55.30;;;;;;5013009;28;20408;-73
2021/07/18 00:34:59;;;;;;;10.43;5.68;;;18.20;55.80;;;;;;5014664;28;20459;-73
2021/07/18 00:37:24;;;;;;;9.33;5.50;;;18.20;56.50;;;;;;5049881;28;20486;-74
2021/07/18 00:39:50;;;;;;;9.13;5.33;;;18.10;57.00;;;;;;5034805;28;20420;-74
2021/07/18 00:42:19;;;;;;;9.52;5.20;;;18.10;58.30;;;;;;5014286;28;20471;-73
2021/07/18 00:44:46;;;;;;;13.50;7.70;;;17.80;60.20;;;;;;5014442;28;20393;-73
2021/07/18 00:47:12;;;;;;;11.25;5.50;;;17.80;62.80;;;;;;5014572;28;20692;-74
2021/07/18 00:49:38;;;;;;;11.10;5.88;;;17.90;60.70;;;;;;5014189;28;20401;-74
2021/07/18 00:52:05;;;;;;;9.00;5.75;;;17.90;60.00;;;;;;5023182;28;20903;-74
2021/07/18 00:54:31;;;;;;;9.98;5.20;;;17.90;60.30;;;;;;5034838;28;20761;-75
2021/07/18 00:56:57;;;;;;;9.48;5.45;;;18.00;60.60;;;;;;5014126;28;20393;-74
2021/07/18 00:59:24;;;;;;;9.18;5.70;;;18.00;60.20;;;;;;5014391;28;20903;-74
2021/07/18 01:01:50;;;;;;;13.30;5.57;;;18.00;59.80;;;;;;5018168;28;20400;-74
2021/07/18 01:04:16;;;;;;;9.88;5.68;;;17.90;60.20;;;;;;5022319;28;20778;-74
2021/07/18 01:06:42;;;;;;;16.17;5.80;;;17.90;60.30;;;;;;5014077;28;20478;-74
2021/07/18 01:09:07;;;;;;;7.30;5.10;;;17.90;60.80;;;;;;5014561;28;20404;-76
2021/07/18 01:11:33;;;;;;;16.05;6.13;;;17.90;61.10;;;;;;5013901;28;20404;-76
2021/07/18 01:13:59;;;;;;;9.50;6.10;;;17.90;61.50;;;;;;5045963;28;20397;-76
2021/07/18 01:16:25;;;;;;;7.60;5.77;;;17.90;62.30;;;;;;5028705;28;20879;-76
2021/07/18 01:18:51;;;;;;;11.65;6.30;;;17.80;62.80;;;;;;5031963;28;20758;-74
2021/07/18 01:21:20;;;;;;;13.32;6.20;;;17.70;63.70;;;;;;4996648;28;20488;-75
2021/07/18 01:23:46;;;;;;;8.50;5.90;;;17.70;63.70;;;;;;5048528;28;20758;-76
2021/07/18 01:26:11;;;;;;;16.50;6.20;;;17.70;64.10;;;;;;5013926;28;20408;-76
2021/07/18 01:28:37;;;;;;;12.90;6.90;;;17.70;64.30;;;;;;5015924;28;20854;-76
2021/07/18 01:31:03;;;;;;;7.67;5.90;;;17.70;64.60;;;;;;5015157;28;20896;-76
2021/07/18 01:33:28;;;;;;;12.13;6.90;;;17.40;66.70;;;;;;5043808;28;20481;-76
2021/07/18 01:35:54;;;;;;;10.48;6.88;;;17.50;67.80;;;;;;5025860;28;20481;-76
2021/07/18 01:38:19;;;;;;;11.63;6.67;;;17.50;67.80;;;;;;5013957;28;20530;-75
2021/07/18 01:40:46;;;;;;;14.70;6.40;;;17.50;68.50;;;;;;5031284;28;20854;-75
2021/07/18 01:43:12;;;;;;;10.50;6.45;;;17.50;67.50;;;;;;5033974;28;20387;-76
2021/07/18 01:45:37;;;;;;;12.40;6.75;;;17.40;69.20;;;;;;5031410;28;20884;-76
2021/07/18 01:48:03;;;;;;;11.07;6.90;;;17.40;69.90;;;;;;5013508;28;20425;-76
2021/07/18 01:50:29;;;;;;;11.73;6.80;;;17.40;69.20;;;;;;5012829;28;20394;-75
2021/07/18 01:52:54;;;;;;;12.93;6.80;;;17.50;69.00;;;;;;5045565;28;20915;-76
2021/07/18 01:55:22;;;;;;;21.08;7.72;;;17.40;69.70;;;;;;5013923;28;20462;-76
2021/07/18 01:57:48;;;;;;;15.30;7.43;;;17.40;70.70;;;;;;5013120;28;20393;-76
2021/07/18 02:00:14;;;;;;;12.25;7.10;;;17.20;71.50;;;;;;5024967;28;20881;-75
2021/07/18 02:02:44;;;;;;;11.73;6.82;;;17.20;72.80;;;;;;5043660;28;20750;-75
2021/07/18 02:05:12;;;;;;;10.70;7.07;;;17.20;72.80;;;;;;5027854;28;20497;-76
2021/07/18 02:07:38;;;;;;;16.27;7.65;;;17.20;74.70;;;;;;5044338;28;20773;-75
2021/07/18 02:10:05;;;;;;;11.65;7.00;;;17.30;72.60;;;;;;5017515;28;20450;-76
2021/07/18 02:12:33;;;;;;;14.35;7.45;;;17.30;71.60;;;;;;5031976;28;20451;-76
2021/07/18 02:14:58;;;;;;;10.75;7.28;;;17.40;71.00;;;;;;5033053;28;20398;-76
2021/07/18 02:17:24;;;;;;;12.47;7.37;;;17.30;70.90;;;;;;5032119;28;20396;-76
2021/07/18 02:19:50;;;;;;;16.60;8.10;;;17.20;71.40;;;;;;5034495;28;20383;-75
2021/07/18 02:22:29;;;;;;;13.13;8.20;;;17.10;74.10;;;;;;5047082;28;20480;-76
2021/07/18 02:24:55;;;;;;;11.30;7.55;;;17.20;74.70;;;;;;4995071;28;20396;-76
2021/07/18 02:27:20;;;;;;;12.25;7.63;;;17.30;72.80;;;;;;5020173;28;20878;-76
2021/07/18 02:29:46;;;;;;;17.40;7.90;;;17.20;72.90;;;;;;5013703;28;20877;-74
2021/07/18 02:32:11;;;;;;;16.93;7.60;;;17.20;73.40;;;;;;5030013;28;20914;-76
2021/07/18 02:34:37;;;;;;;11.30;8.07;;;17.20;73.30;;;;;;5016192;28;20400;-74
2021/07/18 02:37:03;;;;;;;18.30;8.50;;;17.00;73.90;;;;;;5012391;28;20800;-76
2021/07/18 02:39:28;;;;;;;11.98;7.70;;;17.10;74.70;;;;;;5027615;28;20725;-76
2021/07/18 02:41:54;;;;;;;14.20;7.50;;;17.10;74.50;;;;;;5027279;28;20408;-75
2021/07/18 02:44:19;;;;;;;14.30;8.20;;;17.20;74.00;;;;;;5014999;28;20880;-75
2021/07/18 02:46:45;;;;;;;11.45;7.63;;;17.10;74.20;;;;;;4997040;28;20413;-75
2021/07/18 02:49:10;;;;;;;14.27;8.70;;;17.20;74.30;;;;;;5011710;28;20405;-75
2021/07/18 02:51:36;;;;;;;16.40;8.93;;;17.10;74.60;;;;;;5015367;28;21543;-75
2021/07/18 02:54:02;;;;;;;13.93;7.97;;;17.00;75.90;;;;;;4993927;28;20401;-76
2021/07/18 02:56:27;;;;;;;17.63;7.95;;;17.00;77.00;;;;;;5013041;28;20380;-77
2021/07/18 02:58:53;;;;;;;14.63;8.30;;;17.00;76.30;;;;;;5024988;28;20424;-75
2021/07/18 03:01:18;;;;;;;14.77;8.70;;;17.00;76.10;;;;;;5017794;28;20381;-75
2021/07/18 03:03:51;;;;;;;16.40;7.80;;;17.00;76.10;;;;;;5069459;28;20353;-74
2021/07/18 03:06:16;;;;;;;15.60;9.40;;;17.00;76.50;;;;;;5069505;28;20793;-74
2021/07/18 03:08:42;;;;;;;16.77;8.52;;;16.80;78.10;;;;;;5049252;28;20621;-75
2021/07/18 03:11:08;;;;;;;12.10;8.32;;;16.70;82.10;;;;;;5048816;28;20859;-75
2021/07/18 03:13:33;;;;;;;15.97;8.60;;;16.70;81.90;;;;;;5049075;28;20421;-75
2021/07/18 03:15:59;;;;;;;16.43;9.23;;;16.80;81.70;;;;;;5048519;28;20390;-76
2021/07/18 03:18:24;;;;;;;18.08;9.40;;;16.80;80.40;;;;;;5047741;28;20400;-76
2021/07/18 03:20:50;;;;;;;15.60;8.95;;;16.80;80.10;;;;;;5046330;28;20375;-76
2021/07/18 03:23:15;;;;;;;13.50;9.10;;;16.70;79.40;;;;;;5061651;28;20401;-76
2021/07/18 03:25:41;;;;;;;17.30;9.07;;;16.70;81.50;;;;;;5067870;28;20750;-76
2021/07/18 03:28:07;;;;;;;18.93;9.40;;;16.70;81.50;;;;;;5061794;28;20474;-76
2021/07/18 03:30:32;;;;;;;13.27;9.20;;;16.60;82.60;;;;;;5067402;28;20407;-75
2021/07/18 03:32:58;;;;;;;17.85;9.60;;;16.70;82.80;;;;;;5049754;28;20394;-76
2021/07/18 03:35:23;;;;;;;15.47;9.63;;;16.60;82.50;;;;;;5047477;28;20398;-75
2021/07/18 03:37:49;;;;;;;17.63;9.73;;;16.70;82.00;;;;;;5048016;28;20867;-75
2021/07/18 03:40:15;;;;;;;14.65;9.00;;;16.60;82.10;;;;;;5047152;28;20397;-76
2021/07/18 03:42:42;;;;;;;15.80;9.90;;;16.60;84.40;;;;;;5047238;28;20486;-75
2021/07/18 03:45:09;;;;;;;17.25;9.65;;;16.60;82.60;;;;;;5039849;28;20917;-75
2021/07/18 03:47:35;;;;;;;15.50;9.90;;;16.60;82.10;;;;;;5047158;28;20400;-76
2021/07/18 03:50:01;;;;;;;17.30;9.13;;;16.50;84.10;;;;;;5040824;28;20400;-77
2021/07/18 03:52:27;;;;;;;18.40;9.30;;;16.60;83.80;;;;;;5058922;28;20397;-77
2021/07/18 03:54:52;;;;;;;16.45;9.93;;;16.50;84.60;;;;;;5062023;28;20397;-77
2021/07/18 03:57:18;;;;;;;19.35;9.55;;;16.50;85.10;;;;;;5056808;28;20406;-77
2021/07/18 03:59:43;;;;;;;18.40;9.83;;;16.60;84.90;;;;;;5048927;28;20388;-77
2021/07/18 04:02:09;;;;;;;17.40;9.93;;;16.70;83.10;;;;;;5072798;28;20490;-77
2021/07/18 04:04:34;;;;;;;17.40;9.50;;;16.70;81.50;;;;;;5067261;28;20865;-77
2021/07/18 04:07:01;;;;;;;19.85;10.00;;;16.50;84.20;;;;;;5077313;28;20786;-78
2021/07/18 04:09:26;;;;;;;17.77;9.70;;;16.50;85.70;;;;;;5087451;28;20403;-77
2021/07/18 04:11:52;;;;;;;16.05;10.00;;;16.50;85.00;;;;;;5078557;28;20420;-78
2021/07/18 04:14:18;;;;;;;19.38;10.45;;;16.40;86.70;;;;;;5059035;28;20767;-78
2021/07/18 04:16:43;;;;;;;15.68;9.52;;;16.60;87.00;;;;;;5036002;28;20489;-78
2021/07/18 04:19:09;;;;;;;18.73;9.87;;;16.60;84.70;;;;;;5053699;28;20389;-78
2021/07/18 04:21:34;;;;;;;15.10;9.63;;;16.60;85.50;;;;;;5061114;28;20393;-77
2021/07/18 04:24:00;;;;;;;16.60;9.50;;;16.70;83.60;;;;;;5070551;28;20539;-78
2021/07/18 04:26:26;;;;;;;16.10;9.77;;;16.60;84.90;;;;;;5061460;28;20391;-78
2021/07/18 04:28:51;;;;;;;15.05;9.02;;;16.70;83.80;;;;;;5073863;28;20384;-78
2021/07/18 04:31:17;;;;;;;14.87;9.97;;;16.90;80.80;;;;;;5072417;28;20479;-77
2021/07/18 04:33:43;;;;;;;16.00;9.67;;;16.90;79.60;;;;;;5053819;28;20404;-77
2021/07/18 04:36:10;;;;;;;15.13;9.30;;;17.00;77.80;;;;;;5053150;28;20396;-78
2021/07/18 04:38:36;;;;;;;17.58;10.10;;;17.10;76.40;;;;;;5069521;28;20425;-78
2021/07/18 04:41:02;;;;;;;14.30;9.60;;;17.20;73.00;;;;;;5073907;28;20379;-78
2021/07/18 04:43:28;;;;;;;13.88;8.77;;;17.30;72.30;;;;;;5054966;28;20398;-78
2021/07/18 04:45:53;;;;;;;16.13;9.80;;;17.30;72.40;;;;;;5053402;28;20399;-78
2021/07/18 04:48:19;;;;;;;19.85;10.25;;;17.20;73.20;;;;;;5053681;28;20789;-76
2021/07/18 04:50:46;;;;;;;16.87;9.20;;;17.30;72.80;;;;;;5068769;28;20733;-76
2021/07/18 04:53:12;;;;;;;18.42;9.20;;;17.30;72.20;;;;;;5025517;28;20395;-77
2021/07/18 04:55:38;;;;;;;16.75;9.50;;;17.40;71.30;;;;;;5056875;28;20425;-77
2021/07/18 04:58:03;;;;;;;17.53;9.93;;;17.50;68.70;;;;;;5052846;28;20829;-77
2021/07/18 05:00:29;;;;;;;15.32;9.73;;;17.60;68.50;;;;;;5052951;28;20389;-77
2021/07/18 05:02:55;;;;;;;15.55;9.40;;;17.60;68.60;;;;;;5052510;28;20409;-77
2021/07/18 05:05:20;;;;;;;20.80;10.17;;;17.70;68.40;;;;;;5052409;28;20916;-77
2021/07/18 05:07:59;;;;;;;16.47;10.27;;;17.70;66.90;;;;;;5052692;28;20393;-77
2021/07/18 05:10:26;;;;;;;14.80;10.02;;;17.80;66.70;;;;;;5038859;28;20743;-76
2021/07/18 05:12:54;;;;;;;17.00;9.85;;;17.70;67.40;;;;;;5052342;28;20472;-75
2021/07/18 05:15:21;;;;;;;20.20;10.95;;;17.70;67.60;;;;;;5058770;28;20389;-76
2021/07/18 05:17:47;;;;;;;18.33;10.60;;;17.70;68.20;;;;;;5052713;28;20885;-76
2021/07/18 05:20:14;;;;;;;19.27;11.00;;;17.80;68.20;;;;;;5061288;28;20427;-76
2021/07/18 05:22:40;;;;;;;20.02;10.95;;;17.80;67.30;;;;;;5072438;28;20415;-77
2021/07/18 05:25:07;;;;;;;18.50;11.23;;;17.80;65.80;;;;;;5062987;28;21000;-77
2021/07/18 05:27:34;;;;;;;14.77;10.40;;;17.80;66.20;;;;;;5034277;28;20398;-77
2021/07/18 05:29:59;;;;;;;18.92;11.20;;;17.90;66.80;;;;;;5058598;28;20395;-77
2021/07/18 05:32:25;;;;;;;23.63;11.63;;;17.90;66.50;;;;;;5072831;28;20380;-77
2021/07/18 05:34:51;;;;;;;16.75;10.30;;;18.00;65.20;;;;;;5050239;28;20393;-77
2021/07/18 05:37:16;;;;;;;21.27;10.45;;;18.10;64.60;;;;;;5051935;28;20752;-77
2021/07/18 05:39:42;;;;;;;17.38;11.45;;;18.20;62.00;;;;;;5052296;28;20780;-77
2021/07/18 05:42:08;;;;;;;22.33;10.82;;;18.20;59.60;;;;;;5047184;28;20403;-77
2021/07/18 05:44:34;;;;;;;14.15;9.70;;;18.20;59.70;;;;;;5070848;28;20402;-76
2021/07/18 05:47:00;;;;;;;22.83;10.88;;;18.10;60.40;;;;;;5053164;28;20385;-76
2021/07/18 05:49:27;;;;;;;17.63;11.82;;;18.20;60.70;;;;;;5033802;28;20732;-76
2021/07/18 05:51:52;;;;;;;16.88;10.48;;;18.20;60.40;;;;;;5052032;28;20925;-77
2021/07/18 05:54:18;;;;;;;18.65;10.15;;;18.20;59.80;;;;;;5081209;28;20418;-77
2021/07/18 05:56:43;;;;;;;17.92;10.50;;;18.30;58.90;;;;;;5065809;28;20436;-75
2021/07/18 05:59:09;;;;;;;16.90;10.00;;;18.30;58.00;;;;;;5057396;28;20396;-77
2021/07/18 06:01:35;;;;;;;15.90;10.13;;;18.40;57.30;;;;;;5071199;28;20391;-75
2021/07/18 06:04:00;;;;;;;18.63;10.50;;;18.40;57.80;;;;;;5052127;28;20397;-76
2021/07/18 06:06:26;;;;;;;19.20;9.60;;;18.50;56.50;;;;;;5051140;28;20779;-76
2021/07/18 06:08:52;;;;;;;18.57;10.20;;;18.60;56.40;;;;;;5051060;28;20389;-75
2021/07/18 06:11:18;;;;;;;19.60;10.83;;;18.70;54.60;;;;;;5055512;28;20443;-76
2021/07/18 06:13:43;;;;;;;16.70;9.60;;;18.70;55.60;;;;;;5053894;28;20724;-75
2021/07/18 06:16:09;;;;;;;17.17;9.37;;;18.80;54.00;;;;;;5050579;28;20393;-76
2021/07/18 06:18:35;;;;;;;19.30;10.40;;;18.80;53.70;;;;;;5039584;28;20448;-76
2021/07/18 06:21:01;;;;;;;18.70;10.77;;;18.90;53.30;;;;;;5050780;28;20468;-76
2021/07/18 06:23:27;;;;;;;15.50;10.20;;;18.90;52.60;;;;;;5065507;28;20447;-74
2021/07/18 06:25:53;;;;;;;18.48;9.80;;;18.90;51.90;;;;;;5035209;28;20433;-74
2021/07/18 06:28:18;;;;;;;17.20;9.40;;;19.00;51.50;;;;;;5049815;28;20425;-74
2021/07/18 06:30:44;;;;;;;15.80;10.10;;;19.00;50.70;;;;;;5050622;28;20393;-75
2021/07/18 06:33:10;;;;;;;14.20;9.60;;;19.00;49.70;;;;;;5033509;28;20396;-75
2021/07/18 06:35:35;;;;;;;15.40;8.20;;;19.00;49.30;;;;;;5053424;28;20397;-75
2021/07/18 06:38:01;;;;;;;11.02;8.32;;;19.00;48.50;;;;;;5054702;28;20935;-75
2021/07/18 06:40:27;;;;;;;17.08;8.23;;;19.10;49.50;;;;;;5047921;28;20500;-75
2021/07/18 06:42:52;;;;;;;11.87;7.57;;;19.20;48.80;;;;;;5046611;28;20937;-75
2021/07/18 06:45:18;;;;;;;8.90;7.10;;;19.20;47.40;;;;;;5041643;28;20441;-75
2021/07/18 06:47:44;;;;;;;15.97;6.90;;;19.20;45.80;;;;;;5046964;28;20480;-76
2021/07/18 06:50:10;;;;;;;11.85;7.30;;;19.30;45.90;;;;;;5056186;28;20464;-76
2021/07/18 06:52:35;;;;;;;14.98;7.57;;;19.50;45.60;;;;;;5044579;28;20399;-76
2021/07/18 06:55:01;;;;;;;9.82;6.88;;;19.50;46.70;;;;;;5049168;28;20402;-75
2021/07/18 06:57:27;;;;;;;11.50;6.30;;;19.60;46.20;;;;;;5056418;28;20402;-75
2021/07/18 06:59:53;;;;;;;9.30;5.53;;;19.70;43.50;;;;;;5044158;28;20488;-76
2021/07/18 07:02:18;;;;;;;12.63;5.70;;;19.70;42.60;;;;;;5032219;28;20409;-75
2021/07/18 07:04:44;;;;;;;12.03;5.70;;;19.70;43.30;;;;;;5057496;28;20458;-75
2021/07/18 07:07:10;;;;;;;9.38;5.30;;;19.80;42.80;;;;;;5048394;28;20395;-75
2021/07/18 07:09:36;;;;;;;11.07;6.30;;;19.80;42.40;;;;;;5058791;28;20468;-77
2021/07/18 07:12:01;;;;;;;13.80;5.70;;;19.90;42.30;;;;;;5050169;28;20451;-77
2021/07/18 07:14:27;;;;;;;7.40;4.93;;;20.00;42.70;;;;;;5050867;28;20398;-76
2021/07/18 07:16:53;;;;;;;9.30;4.80;;;20.20;39.70;;;;;;5050054;28;20436;-77
2021/07/18 07:19:18;;;;;;;8.00;4.50;;;20.30;39.20;;;;;;5050037;28;20394;-77
2021/07/18 07:21:44;;;;;;;8.40;4.37;;;20.40;39.20;;;;;;5063098;28;20411;-77
2021/07/18 07:24:09;;;;;;;10.48;4.63;;;20.50;38.70;;;;;;5052854;28;20435;-76
2021/07/18 07:26:35;;;;;;;5.75;4.50;;;20.50;37.90;;;;;;5032836;28;20401;-77
2021/07/18 07:29:02;;;;;;;9.00;4.57;;;20.50;37.80;;;;;;5033968;28;20866;-77
2021/07/18 07:31:27;;;;;;;8.50;4.90;;;20.60;37.90;;;;;;5047502;28;20975;-77
2021/07/18 07:33:53;;;;;;;10.80;4.20;;;20.70;37.50;;;;;;5046352;28;20397;-76
2021/07/18 07:36:19;;;;;;;6.30;4.30;;;20.70;37.10;;;;;;5051222;28;20389;-75
2021/07/18 07:38:45;;;;;;;4.57;4.17;;;20.60;36.80;;;;;;5056204;28;20404;-76
2021/07/18 07:41:11;;;;;;;8.53;4.20;;;20.60;36.90;;;;;;5064734;28;20498;-76
2021/07/18 07:43:36;;;;;;;8.73;4.00;;;20.80;36.50;;;;;;5054305;28;20417;-75
2021/07/18 07:46:03;;;;;;;6.93;4.10;;;20.90;36.20;;;;;;5047559;28;20814;-75
2021/07/18 07:48:29;;;;;;;8.30;4.30;;;20.90;36.10;;;;;;5042894;28;20391;-75
2021/07/18 07:50:57;;;;;;;7.10;4.10;;;21.00;36.60;;;;;;5043034;28;20405;-75
2021/07/18 07:53:23;;;;;;;7.30;4.10;;;21.10;36.00;;;;;;5049969;28;20405;-75
2021/07/18 07:55:49;;;;;;;6.07;3.70;;;21.20;35.10;;;;;;5050053;28;20400;-75
2021/07/18 07:58:14;;;;;;;8.00;4.57;;;21.20;35.20;;;;;;5048866;28;20409;-75
2021/07/18 08:00:40;;;;;;;6.33;3.83;;;21.30;35.40;;;;;;5052589;28;20855;-75
2021/07/18 08:03:06;;;;;;;8.93;4.50;;;21.30;35.80;;;;;;5055864;28;20409;-74
2021/07/18 08:05:31;;;;;;;8.30;4.10;;;21.60;34.70;;;;;;5036340;28;20426;-74
2021/07/18 08:07:57;;;;;;;7.60;4.00;;;21.70;35.20;;;;;;5051639;28;20397;-75
2021/07/18 08:10:23;;;;;;;5.83;3.60;;;21.70;34.70;;;;;;5051650;28;20889;-75
2021/07/18 08:12:50;;;;;;;8.63;3.90;;;21.80;33.70;;;;;;5055757;28;20476;-73
2021/07/18 08:15:18;;;;;;;7.40;3.53;;;21.70;33.80;;;;;;5053692;28;20456;-75
2021/07/18 08:17:44;;;;;;;5.93;3.67;;;21.70;33.00;;;;;;5057304;28;20404;-75
2021/07/18 08:20:20;;;;;;;4.30;3.15;;;21.70;32.90;;;;;;5054043;28;20413;-75
2021/07/18 08:22:47;;;;;;;4.10;3.35;;;21.60;33.10;;;;;;5070438;28;20410;-75
2021/07/18 08:25:15;;;;;;;7.07;3.60;;;21.60;33.10;;;;;;5053774;28;20396;-76
2021/07/18 08:27:41;;;;;;;3.40;3.10;;;21.80;33.60;;;;;;5060096;28;20393;-76
2021/07/18 08:30:07;;;;;;;6.15;3.22;;;21.90;32.70;;;;;;5054170;28;20396;-75
2021/07/18 08:32:33;;;;;;;4.83;2.80;;;22.10;32.30;;;;;;5038793;28;20389;-75
2021/07/18 08:34:59;;;;;;;5.03;2.80;;;22.20;31.50;;;;;;5059116;28;20403;-75
2021/07/18 08:37:24;;;;;;;4.32;2.70;;;22.30;30.50;;;;;;5049042;28;20462;-75
2021/07/18 08:39:51;;;;;;;4.38;3.38;;;22.40;30.70;;;;;;5035859;28;20393;-75
2021/07/18 08:42:17;;;;;;;4.25;2.63;;;22.40;31.40;;;;;;5051903;28;20409;-75
2021/07/18 08:44:43;;;;;;;3.97;2.80;;;22.40;30.20;;;;;;5045296;28;20382;-75
2021/07/18 08:47:10;;;;;;;3.20;2.90;;;22.20;30.10;;;;;;5052077;28;20894;-75
2021/07/18 08:49:38;;;;;;;3.53;2.60;;;22.20;30.10;;;;;;5052706;28;20406;-76
2021/07/18 08:52:04;;;;;;;9.13;2.47;;;22.30;28.90;;;;;;5052827;28;20715;-77
2021/07/18 08:54:33;;;;;;;3.97;2.73;;;22.40;27.80;;;;;;5076426;28;20412;-76
2021/07/18 08:57:03;;;;;;;2.58;2.30;;;22.40;27.50;;;;;;5059566;28;20396;-75
2021/07/18 08:59:29;;;;;;;3.30;2.20;;;22.40;27.40;;;;;;5055187;28;20846;-76
2021/07/18 09:01:55;;;;;;;2.50;2.20;;;22.30;28.00;;;;;;5066810;28;20423;-77
2021/07/18 09:04:21;;;;;;;4.45;2.40;;;22.40;27.50;;;;;;5073289;28;20408;-77
2021/07/18 09:06:48;;;;;;;2.60;2.20;;;22.50;27.00;;;;;;5075522;28;20395;-75
2021/07/18 09:09:19;;;;;;;4.72;2.50;;;22.60;27.90;;;;;;5066300;28;20412;-76
2021/07/18 09:11:55;;;;;;;4.15;2.50;;;22.70;27.60;;;;;;5088840;28;20844;-75
2021/07/18 09:14:21;;;;;;;5.30;2.40;;;22.80;27.00;;;;;;5072497;28;20395;-74
2021/07/18 09:16:50;;;;;;;3.65;2.70;;;22.90;26.60;;;;;;5096556;22;20426;-71
2021/07/18 09:19:29;;;;;;;3.90;2.65;;;23.10;25.90;;;;;;5090660;28;20386;-73
2021/07/18 09:21:58;;;;;;;2.90;2.33;;;23.20;26.20;;;;;;5095225;28;20865;-75
2021/07/18 09:24:26;;;;;;;6.07;3.00;;;23.20;27.00;;;;;;5092139;28;20889;-78
2021/07/18 09:27:10;;;;;;;4.15;3.00;;;23.10;25.60;;;;;;5085007;28;20486;-73
2021/07/18 09:29:38;;;;;;;3.05;2.67;;;23.20;25.40;;;;;;5063530;28;20400;-73
2021/07/18 09:32:12;;;;;;;4.35;3.00;;;23.20;25.00;;;;;;5067816;28;20422;-73
2021/07/18 09:34:43;;;;;;;4.90;3.03;;;23.30;25.50;;;;;;5075350;28;20402;-73
2021/07/18 09:37:17;;;;;;;4.40;3.20;;;23.20;26.40;;;;;;5075453;28;20727;-74
2021/07/18 09:39:53;;;;;;;4.77;3.73;;;23.20;25.90;;;;;;5070830;28;20388;-72
2021/07/18 09:42:43;;;;;;;7.05;3.35;;;23.30;26.10;;;;;;5071363;28;20403;-76
2021/07/18 09:45:12;;;;;;;6.32;3.50;;;23.40;25.20;;;;;;5077009;28;20402;-74
2021/07/18 09:48:09;;;;;;;3.40;3.10;;;23.60;24.90;;;;;;5075007;28;20395;-75
2021/07/18 09:50:39;;;;;;;4.65;3.30;;;23.80;24.10;;;;;;5051938;28;20382;-73
2021/07/18 09:53:18;;;;;;;5.00;3.63;;;23.90;23.70;;;;;;5070372;28;20410;-74
2021/07/18 09:56:16;;;;;;;8.88;3.45;;;24.00;23.00;;;;;;5069760;28;20430;-74
2021/07/18 09:58:55;;;;;;;8.43;4.10;;;23.90;23.40;;;;;;5083111;28;20434;-74
2021/07/18 10:01:22;;;;;;;9.43;4.90;;;23.90;25.40;;;;;;5084525;28;20388;-79
2021/07/18 10:03:49;;;;;;;7.30;4.90;;;24.00;24.30;;;;;;5089060;28;20410;-74
2021/07/18 10:06:17;;;;;;;8.45;4.72;;;24.20;23.60;;;;;;5074567;28;20426;-74
2021/07/18 10:08:44;;;;;;;7.45;3.70;;;24.30;24.30;;;;;;5071473;28;20469;-78
2021/07/18 10:11:12;;;;;;;10.05;5.00;;;24.30;22.40;;;;;;5068299;28;20446;-77
2021/07/18 10:13:40;;;;;;;7.97;5.60;;;24.40;22.80;;;;;;5071835;28;20386;-77
2021/07/18 10:16:07;;;;;;;9.80;4.90;;;24.40;22.80;;;;;;5070025;28;20424;-76
2021/07/18 10:18:35;;;;;;;10.25;5.47;;;24.50;23.10;;;;;;5071261;28;20404;-76
2021/07/18 10:21:01;;;;;;;11.10;5.80;;;24.80;22.60;;;;;;5070524;28;20955;-77
2021/07/18 10:23:27;;;;;;;10.13;4.93;;;24.80;22.20;;;;;;5071987;28;20883;-77
2021/07/18 10:25:53;;;;;;;8.38;3.92;;;24.60;22.70;;;;;;5070294;28;20388;-76
2021/07/18 10:28:24;;;;;;;6.50;3.40;;;24.70;22.60;;;;;;5071330;28;20449;-76
2021/07/18 10:30:56;;;;;;;5.75;3.45;;;24.60;21.80;;;;;;5071232;28;20382;-77
2021/07/18 10:33:23;;;;;;;5.70;3.10;;;24.60;22.60;;;;;;5071969;28;20387;-76
2021/07/18 10:35:52;;;;;;;5.75;3.35;;;24.60;20.80;;;;;;5071261;28;20406;-77
2021/07/18 10:38:23;;;;;;;5.00;3.40;;;24.80;21.60;;;;;;5070193;28;20911;-75
2021/07/18 10:40:54;;;;;;;5.37;2.63;;;24.90;20.90;;;;;;5070840;28;20441;-76
2021/07/18 10:43:49;;;;;;;4.43;2.80;;;24.90;20.90;;;;;;5071268;28;20458;-77
2021/07/18 10:46:36;;;;;;;5.35;2.72;;;24.80;19.30;;;;;;5071565;28;20384;-76
2021/07/18 10:49:02;;;;;;;4.65;2.70;;;24.70;20.10;;;;;;5086683;28;20402;-78
2021/07/18 10:51:35;;;;;;;4.50;3.50;;;24.70;19.40;;;;;;5072481;28;20725;-77
2021/07/18 10:54:17;;;;;;;6.13;2.60;;;24.80;20.00;;;;;;5089658;28;20382;-77
2021/07/18 10:56:44;;;;;;;10.20;9.17;;;24.80;20.00;;;;;;5072787;28;20429;-76
2021/07/18 10:59:36;;;;;;;4.88;2.90;;;24.90;20.10;;;;;;5073302;28;20441;-76
2021/07/18 11:02:11;;;;;;;9.55;3.40;;;25.00;19.30;;;;;;5074545;28;20772;-76
2021/07/18 11:04:52;;;;;;;6.07;3.10;;;25.10;20.00;;;;;;5076268;28;20748;-77
2021/07/18 11:07:21;;;;;;;5.68;5.15;;;25.00;20.00;;;;;;5073275;28;20383;-75
2021/07/18 11:10:08;;;;;;;7.77;6.70;;;25.00;20.90;;;;;;5071991;28;20985;-77
2021/07/18 11:12:37;;;;;;;5.00;3.40;;;25.20;21.40;;;;;;5072792;28;20395;-76
2021/07/18 11:15:15;;;;;;;3.78;3.10;;;25.20;20.20;;;;;;5074174;28;20396;-76
2021/07/18 11:18:06;;;;;;;4.75;3.30;;;25.30;19.50;;;;;;5076002;28;20396;-77
2021/07/18 11:20:48;;;;;;;6.03;3.30;;;25.40;19.80;;;;;;5075050;28;20740;-77
2021/07/18 11:23:28;;;;;;;4.95;3.55;;;25.60;18.80;;;;;;5078491;28;20491;-76
2021/07/18 11:26:08;;;;;;;6.85;3.58;;;25.70;19.80;;;;;;5088014;28;20432;-77
2021/07/18 11:28:38;;;;;;;7.35;3.80;;;25.80;19.00;;;;;;5085456;28;20448;-74
2021/07/18 11:31:10;;;;;;;8.30;3.90;;;25.90;19.20;;;;;;5080827;28;20423;-76
2021/07/18 11:33:45;;;;;;;7.35;3.38;;;26.00;19.60;;;;;;5080271;28;20399;-75
2021/07/18 11:36:15;;;;;;;6.78;3.70;;;26.00;19.50;;;;;;5089977;28;20405;-76
2021/07/18 11:38:41;;;;;;;15.32;10.18;;;25.80;19.80;;;;;;5090319;28;20475;-74
2021/07/18 11:41:17;;;;;;;5.15;3.78;;;25.80;19.20;;;;;;5085779;28;20388;-74
2021/07/18 11:43:55;;;;;;;13.60;9.25;;;25.80;18.20;;;;;;5085931;28;20395;-76
2021/07/18 11:46:23;;;;;;;10.70;6.72;;;25.90;17.60;;;;;;5082288;28;20379;-74
2021/07/18 11:48:50;;;;;;;4.80;3.70;;;25.80;17.20;;;;;;5084140;28;20394;-75
2021/07/18 11:51:21;;;;;;;8.38;5.13;;;25.90;17.40;;;;;;5075422;28;20391;-76
2021/07/18 11:53:52;;;;;;;5.80;3.80;;;25.90;17.40;;;;;;5074972;28;20391;-75
2021/07/18 11:56:19;;;;;;;48.72;33.03;;;25.80;15.90;;;;;;5074253;28;20466;-75
2021/07/18 11:58:44;;;;;;;5.22;3.80;;;25.70;16.90;;;;;;5074987;28;20922;-75
2021/07/18 12:01:10;;;;;;;4.60;2.40;;;25.80;16.00;;;;;;5075471;28;20383;-75
2021/07/18 12:03:36;;;;;;;3.30;2.30;;;25.80;16.40;;;;;;5075941;28;21070;-74
2021/07/18 12:06:02;;;;;;;2.67;2.37;;;25.80;15.80;;;;;;5075115;28;20740;-74
2021/07/18 12:08:28;;;;;;;3.08;2.75;;;25.70;16.70;;;;;;5074198;28;20486;-74
2021/07/18 12:11:05;;;;;;;6.13;2.80;;;25.90;16.80;;;;;;5074016;28;20477;-73
2021/07/18 12:13:35;;;;;;;3.85;3.25;;;26.00;16.10;;;;;;5074284;28;20395;-73
2021/07/18 12:16:03;;;;;;;5.50;3.00;;;26.20;15.90;;;;;;5073894;28;20387;-73
2021/07/18 12:18:28;;;;;;;3.97;2.97;;;26.20;17.20;;;;;;5073317;28;20498;-76
2021/07/18 12:21:14;;;;;;;2.90;2.70;;;26.00;17.10;;;;;;5073336;28;20456;-73
2021/07/18 12:23:39;;;;;;;3.28;2.97;;;26.10;17.60;;;;;;5074159;28;20419;-73
2021/07/18 12:26:05;;;;;;;5.97;3.63;;;26.20;16.60;;;;;;5074531;28;20384;-74
2021/07/18 12:28:30;;;;;;;3.80;3.38;;;26.30;17.20;;;;;;5074113;28;20422;-73
2021/07/18 12:31:04;;;;;;;4.30;3.60;;;26.40;17.10;;;;;;5074410;28;20376;-77
2021/07/18 12:33:29;;;;;;;4.18;3.60;;;26.30;17.70;;;;;;5074877;28;20582;-75
2021/07/18 12:36:03;;;;;;;4.60;3.37;;;26.50;18.10;;;;;;5070691;28;20461;-75
2021/07/18 12:38:29;;;;;;;5.22;3.60;;;26.50;16.70;;;;;;5072914;28;20392;-76
2021/07/18 12:41:02;;;;;;;6.22;3.80;;;26.40;17.80;;;;;;5075968;28;20398;-76
2021/07/18 12:43:28;;;;;;;6.20;3.90;;;26.70;17.60;;;;;;5072347;28;20408;-76